Time;durP1;ratioP1;P1;durP2;ratioP2;P2;SDS_P1;SDS_P2;PMS_P1;PMS_P2;Temp;Humidity;BMP_temperature;BMP_pressure;BME280_temperature;BME280_humidity;BME280_pressure;Samples;Min_cycle;Max_cycle;Signal;HPM_P1;HPM_P2
2021/12/17 00:09:11;;;;;;;;;;;;;;;2.35;100.00;101133.03;6275526;28;20128;-73
2021/12/17 00:12:16;;;;;;;189.48;26.40;;;;;;;2.35;100.00;101125.28;6275419;28;19920;-73
2021/12/17 00:15:17;;;;;;;178.40;26.58;;;;;;;2.35;100.00;101121.88;6274980;28;20071;-73
2021/12/17 00:18:36;;;;;;;257.23;25.60;;;;;;;2.27;100.00;101121.09;6273522;28;20476;-73
2021/12/17 00:51:58;;;;;;;47.78;21.95;;;;;;;1.39;100.00;101111.47;6265127;28;20064;-72
2021/12/17 00:54:59;;;;;;;53.67;22.52;;;;;;;1.42;100.00;101121.75;6273664;28;20041;-73
2021/12/17 00:58:00;;;;;;;120.63;23.90;;;;;;;1.46;100.00;101125.16;6274540;28;20045;-72
2021/12/17 01:01:01;;;;;;;70.95;25.48;;;;;;;1.11;100.00;101133.91;6257045;28;20041;-72
2021/12/17 01:04:02;;;;;;;48.17;25.77;;;;;;;1.32;100.00;101130.38;6274427;28;20041;-72
2021/12/17 01:07:04;;;;;;;60.08;25.15;;;;;;;1.36;100.00;101142.34;6273398;28;20052;-72
2021/12/17 01:10:10;;;;;;;45.47;25.35;;;;;;;1.16;100.00;101138.19;6274054;28;20041;-73
2021/12/17 01:13:11;;;;;;;61.95;24.58;;;;;;;1.26;100.00;101148.44;6273723;28;20118;-72
2021/12/17 01:16:15;;;;;;;38.65;24.25;;;;;;;1.26;100.00;101151.00;6274224;28;20037;-72
2021/12/17 01:19:27;;;;;;;43.33;25.58;;;;;;;1.23;100.00;101151.00;6272909;28;20076;-72
2021/12/17 01:35:18;;;;;;;39.20;25.17;;;;;;;1.03;100.00;101151.09;6256533;28;20041;-72
2021/12/17 01:35:35;;;;;;;49.95;24.30;;;;;;;0.97;100.00;101157.13;6272406;28;20072;-71
2021/12/17 01:39:06;;;;;;;48.30;25.15;;;;;;;0.92;100.00;101175.09;6256016;28;20384;-72
2021/12/17 01:42:07;;;;;;;61.38;24.73;;;;;;;0.93;100.00;101161.41;6273744;28;20049;-71
2021/12/17 01:45:09;;;;;;;77.00;27.52;;;;;;;0.91;100.00;101165.72;6272400;28;20059;-72
2021/12/17 01:48:15;;;;;;;75.22;26.75;;;;;;;0.87;100.00;101170.88;6273642;28;20037;-72
2021/12/17 02:01:23;;;;;;;63.58;25.70;;;;;;;1.04;100.00;101152.81;6272853;28;20037;-72
2021/12/17 02:04:24;;;;;;;82.70;23.73;;;;;;;1.01;100.00;101148.53;6272848;28;20491;-71
2021/12/17 02:07:25;;;;;;;59.03;23.23;;;;;;;1.02;100.00;101141.69;6271908;28;20045;-72
2021/12/17 02:21:01;;;;;;;44.55;24.77;;;;;;;1.05;100.00;101129.69;6271778;28;20460;-71
2021/12/17 02:31:02;;;;;;;41.75;24.70;;;;;;;1.25;100.00;101123.56;6272590;28;20041;-70
2021/12/17 02:34:16;;;;;;;37.85;24.10;;;;;;;1.16;100.00;101122.75;6272477;28;20045;-71
2021/12/17 02:37:21;;;;;;;38.50;24.50;;;;;;;1.29;100.00;101125.25;6272153;28;20128;-72
2021/12/17 02:47:02;;;;;;;35.03;23.42;;;;;;;1.42;100.00;101134.59;6271736;28;20099;-72
2021/12/17 02:50:04;;;;;;;36.67;23.48;;;;;;;1.49;100.00;101130.28;6271715;28;20052;-72
2021/12/17 02:53:08;;;;;;;37.67;24.45;;;;;;;1.58;100.00;101122.50;6271054;28;20476;-71
2021/12/17 02:56:09;;;;;;;37.28;23.27;;;;;;;1.71;100.00;101128.41;6254215;28;20144;-71
2021/12/17 02:59:13;;;;;;;36.47;23.95;;;;;;;1.72;100.00;101112.97;6271064;28;20488;-71
2021/12/17 03:02:15;;;;;;;37.72;24.70;;;;;;;1.66;100.00;101117.31;6272275;28;20044;-71
2021/12/17 03:05:16;;;;;;;41.00;25.70;;;;;;;1.63;100.00;101113.06;6270886;28;20049;-71
2021/12/17 03:08:18;;;;;;;38.08;24.67;;;;;;;1.72;100.00;101109.53;6271064;28;20050;-71
2021/12/17 03:11:19;;;;;;;37.50;24.00;;;;;;;1.74;100.00;101102.66;6304094;28;20127;-72
2021/12/17 03:14:20;;;;;;;42.10;25.58;;;;;;;1.85;100.00;101094.84;6270540;28;20756;-71
2021/12/17 03:17:44;;;;;;;45.15;26.33;;;;;;;1.93;100.00;101090.50;6254096;28;20395;-71
2021/12/17 03:24:05;;;;;;;44.97;26.75;;;;;;;1.90;100.00;101096.53;6271946;28;20048;-71
2021/12/17 03:27:06;;;;;;;46.97;29.13;;;;;;;1.89;100.00;101096.53;6270463;28;20041;-71
2021/12/17 03:30:07;;;;;;;48.40;29.40;;;;;;;1.92;100.00;101093.94;6270133;28;20049;-71
2021/12/17 03:33:08;;;;;;;51.38;30.40;;;;;;;1.96;100.00;101083.59;6270369;28;20498;-72
2021/12/17 03:36:14;;;;;;;49.88;29.25;;;;;;;2.05;100.00;101087.81;6253674;28;20061;-72
2021/12/17 03:39:15;;;;;;;49.78;29.15;;;;;;;2.11;100.00;101084.34;6271116;28;20519;-72
2021/12/17 03:42:16;;;;;;;54.20;32.45;;;;;;;1.99;100.00;101081.00;6271739;28;20047;-72
2021/12/17 03:45:19;;;;;;;51.92;31.23;;;;;;;2.18;100.00;101083.38;6271602;28;20455;-71
2021/12/17 03:48:19;;;;;;;54.47;31.98;;;;;;;2.19;100.00;101075.66;6271593;28;20488;-72
2021/12/17 03:51:20;;;;;;;59.53;32.08;;;;;;;2.26;100.00;101071.28;6272779;28;20055;-72
2021/12/17 03:54:21;;;;;;;60.42;32.90;;;;;;;2.35;100.00;101068.63;6275184;28;20494;-72
2021/12/17 03:57:22;;;;;;;57.03;32.25;;;;;;;2.33;100.00;101054.91;6274966;28;20083;-72
2021/12/17 04:00:23;;;;;;;61.75;32.85;;;;;;;2.38;100.00;101054.84;6274923;28;20037;-72
2021/12/17 04:03:24;;;;;;;53.42;30.45;;;;;;;2.33;100.00;101057.50;6275937;28;20049;-72
2021/12/17 04:06:24;;;;;;;53.45;31.98;;;;;;;2.27;100.00;101067.00;6274717;28;20052;-72
2021/12/17 04:09:29;;;;;;;55.58;31.98;;;;;;;2.30;100.00;101064.38;6275928;28;20551;-73
2021/12/17 04:15:59;;;;;;;62.00;33.25;;;;;;;2.33;100.00;101065.22;6272843;28;20061;-73
2021/12/17 04:19:00;;;;;;;54.33;30.60;;;;;;;2.40;100.00;101053.97;6274396;28;20044;-72
2021/12/17 04:22:01;;;;;;;54.30;31.33;;;;;;;2.36;100.00;101054.03;6274699;28;20063;-71
2021/12/17 04:25:03;;;;;;;58.95;31.27;;;;;;;2.25;100.00;101053.31;6275340;28;20541;-72
2021/12/17 04:28:04;;;;;;;49.65;30.30;;;;;;;2.24;100.00;101057.56;6274058;28;20045;-72
2021/12/17 04:31:05;;;;;;;48.50;28.58;;;;;;;2.12;100.00;101061.16;6273697;28;20049;-72
2021/12/17 04:34:06;;;;;;;48.97;27.38;;;;;;;1.98;100.00;101061.28;6273489;28;20049;-72
2021/12/17 04:37:07;;;;;;;51.03;27.92;;;;;;;1.94;100.00;101056.19;6274951;28;20071;-72
2021/12/17 04:40:09;;;;;;;99.00;28.48;;;;;;;1.77;100.00;101048.59;6275277;28;20068;-72
2021/12/17 04:43:40;;;;;;;65.68;28.15;;;;;;;1.86;100.00;101043.38;6273876;28;20045;-71
2021/12/17 04:59:43;;;;;;;100.93;34.65;;;;;;;1.49;100.00;101040.28;6274534;28;20056;-72
2021/12/17 05:02:47;;;;;;;82.47;33.72;;;;;;;1.46;100.00;101041.13;6274014;28;20060;-71
2021/12/17 05:05:48;;;;;;;84.60;30.92;;;;;;;1.39;100.00;101040.31;6274248;28;20494;-71
2021/12/17 05:08:55;;;;;;;73.15;27.52;;;;;;;1.34;100.00;101041.22;6272816;28;20049;-71
2021/12/17 05:18:26;;;;;;;64.70;23.65;;;;;;;1.23;100.00;101032.72;6274074;28;20037;-72
2021/12/17 05:21:27;;;;;;;48.30;24.90;;;;;;;1.18;100.00;101038.75;6306376;28;20181;-71
2021/12/17 05:24:28;;;;;;;53.00;26.55;;;;;;;1.12;100.00;101043.09;6274086;28;20464;-72
2021/12/17 05:27:29;;;;;;;40.72;25.33;;;;;;;1.10;100.00;101037.97;6272654;28;20155;-71
2021/12/17 05:30:32;;;;;;;78.15;35.03;;;;;;;0.99;100.00;101040.59;6272701;28;20128;-71
2021/12/17 05:33:33;;;;;;;205.05;61.33;;;;;;;0.92;100.00;101035.50;6274035;28;20529;-71
2021/12/17 05:36:33;;;;;;;174.02;55.88;;;;;;;0.93;100.00;101034.66;6273812;28;20102;-72
2021/12/17 05:39:34;;;;;;;150.27;51.45;;;;;;;1.00;100.00;101032.00;6255842;28;20045;-71
2021/12/17 05:42:35;;;;;;;151.00;51.50;;;;;;;1.05;100.00;101026.88;6273701;28;20071;-70
2021/12/17 05:45:49;;;;;;;119.18;40.03;;;;;;;0.98;100.00;101020.88;6272250;28;20037;-71
2021/12/17 05:48:49;;;;;;;79.47;32.65;;;;;;;0.75;100.00;101010.75;6273272;28;20041;-71
2021/12/17 05:51:52;;;;;;;61.70;29.63;;;;;;;0.87;100.00;101019.25;6276475;28;20051;-71
2021/12/17 05:54:52;;;;;;;49.13;29.33;;;;;;;0.86;100.00;101008.09;6295495;28;20041;-71
2021/12/17 05:57:53;;;;;;;50.38;29.30;;;;;;;0.85;100.00;101016.69;6313235;28;20137;-71
2021/12/17 06:00:54;;;;;;;73.70;37.80;;;;;;;0.79;100.00;101017.56;6295328;28;20041;-71
2021/12/17 06:03:55;;;;;;;75.00;39.97;;;;;;;0.80;100.00;101015.84;6297545;28;20434;-72
2021/12/17 06:06:56;;;;;;;80.93;42.28;;;;;;;0.69;100.00;101021.06;6296500;28;20049;-72
2021/12/17 06:10:00;;;;;;;71.40;40.22;;;;;;;0.60;100.00;101015.97;6296519;28;20045;-72
2021/12/17 06:13:00;;;;;;;46.92;27.67;;;;;;;0.59;100.00;101016.81;6297784;28;20541;-71
2021/12/17 06:16:01;;;;;;;47.05;27.83;;;;;;;0.74;100.00;101008.19;6296879;28;20049;-72
2021/12/17 06:19:03;;;;;;;57.15;31.98;;;;;;;0.63;100.00;101012.53;6297460;28;20098;-71
2021/12/17 06:22:04;;;;;;;58.00;32.97;;;;;;;0.80;100.00;101029.56;6297483;28;20045;-71
2021/12/17 06:25:07;;;;;;;58.78;32.50;;;;;;;0.94;100.00;101031.19;6297423;28;20041;-71
2021/12/17 06:28:08;;;;;;;56.72;25.40;;;;;;;0.86;100.00;101032.97;6297333;28;20056;-71
2021/12/17 06:31:09;;;;;;;75.38;25.83;;;;;;;0.60;100.00;101029.66;6285908;28;20044;-71
2021/12/17 06:34:09;;;;;;;100.25;26.80;;;;;;;0.71;100.00;101039.88;6285510;28;20040;-72
2021/12/17 06:37:10;;;;;;;96.72;26.77;;;;;;;0.57;100.00;101036.50;6294749;28;20075;-72
2021/12/17 06:40:12;;;;;;;94.72;25.70;;;;;;;0.37;100.00;101034.00;6295899;28;20044;-71
2021/12/17 06:43:13;;;;;;;67.28;25.95;;;;;;;0.51;100.00;101046.81;6296275;28;20037;-70
2021/12/17 06:46:35;;;;;;;65.80;26.05;;;;;;;0.40;100.00;101032.28;6261941;28;20101;-71
2021/12/17 06:59:06;;;;;;;85.18;36.80;;;;;;;0.61;100.00;101038.22;6295876;28;20042;-71
2021/12/17 07:24:50;;;;;;;59.25;29.48;;;;;;;1.05;100.00;101038.84;6295748;28;20033;-71
2021/12/17 07:34:11;;;;;;;49.40;24.50;;;;;;;1.34;100.00;101048.94;6299618;28;19920;-71
2021/12/17 07:40:13;;;;;;;56.17;29.63;;;;;;;1.05;100.00;101062.84;6291188;28;20525;-71
2021/12/17 07:43:24;;;;;;;52.63;31.05;;;;;;;1.21;100.00;101066.16;6275483;28;20041;-71
2021/12/17 07:46:26;;;;;;;51.45;29.48;;;;;;;1.26;100.00;101067.00;6275500;28;20044;-71
2021/12/17 07:49:27;;;;;;;48.13;25.77;;;;;;;1.48;100.00;101067.69;6294601;28;20044;-72
2021/12/17 07:52:28;;;;;;;59.92;29.95;;;;;;;1.47;100.00;101075.44;6300091;28;20052;-71
2021/12/17 07:55:29;;;;;;;56.28;31.25;;;;;;;1.67;100.00;101070.13;6298940;28;20047;-72
2021/12/17 07:58:30;;;;;;;55.97;29.85;;;;;;;1.80;100.00;101061.44;6298567;28;20044;-72
2021/12/17 08:01:31;;;;;;;54.13;31.63;;;;;;;2.16;100.00;101055.09;6298856;28;20499;-72
2021/12/17 08:04:32;;;;;;;50.95;29.63;;;;;;;1.89;100.00;101066.50;6265472;28;20067;-72
2021/12/17 08:07:33;;;;;;;53.63;30.67;;;;;;;2.30;100.00;101069.53;6298546;28;20041;-72
2021/12/17 08:10:34;;;;;;;48.95;27.80;;;;;;;2.01;100.00;101066.38;6299835;28;20041;-72
2021/12/17 08:13:36;;;;;;;56.10;31.65;;;;;;;1.94;100.00;101069.06;6299751;28;20466;-72
2021/12/17 08:17:10;;;;;;;50.95;30.40;;;;;;;1.83;100.00;101070.84;6275655;28;20043;-72
2021/12/17 08:32:25;;;;;;;50.50;29.27;;;;;;;1.95;100.00;101056.13;6299266;28;20153;-73
2021/12/17 08:35:26;;;;;;;51.50;28.52;;;;;;;1.99;100.00;101050.09;6299291;28;20047;-73
2021/12/17 08:38:26;;;;;;;55.33;31.25;;;;;;;2.01;100.00;101061.22;6296995;28;20426;-73
2021/12/17 08:41:28;;;;;;;61.70;33.92;;;;;;;2.17;100.00;101072.25;6262101;28;20127;-73
2021/12/17 08:44:29;;;;;;;62.05;32.80;;;;;;;2.42;100.00;101067.69;6273081;28;20041;-73
2021/12/17 08:47:31;;;;;;;58.17;29.88;;;;;;;2.19;100.00;101069.66;6275010;28;20623;-72
2021/12/17 08:50:32;;;;;;;59.23;31.90;;;;;;;2.19;100.00;101067.94;6298878;28;20095;-73
2021/12/17 08:53:33;;;;;;;50.65;29.45;;;;;;;2.22;100.00;101072.19;6297753;28;20041;-73
2021/12/17 08:56:37;;;;;;;54.58;29.45;;;;;;;2.16;100.00;101080.84;6281165;28;20071;-73
2021/12/17 08:59:38;;;;;;;49.45;26.55;;;;;;;2.27;100.00;101077.31;6297304;28;20055;-73
2021/12/17 09:02:41;;;;;;;49.25;26.70;;;;;;;2.36;100.00;101069.47;6297480;28;20051;-73
2021/12/17 09:05:45;;;;;;;44.95;24.98;;;;;;;2.36;100.00;101077.19;6298571;28;20067;-73
2021/12/17 09:08:48;;;;;;;45.45;26.05;;;;;;;2.68;100.00;101070.81;6297220;28;20487;-73
2021/12/17 09:11:52;;;;;;;47.45;25.20;;;;;;;2.65;100.00;101071.72;6298334;28;20048;-73
2021/12/17 09:14:52;;;;;;;44.88;22.80;;;;;;;2.47;100.00;101066.78;6297120;28;20044;-72
2021/12/17 09:17:54;;;;;;;42.03;23.25;;;;;;;2.48;100.00;101058.19;6280299;28;20083;-73
2021/12/17 09:20:55;;;;;;;45.17;24.20;;;;;;;2.74;100.00;101061.31;6297086;28;20450;-72
2021/12/17 09:23:56;;;;;;;42.95;24.65;;;;;;;2.86;100.00;101062.00;6276945;28;20044;-72
2021/12/17 09:26:57;;;;;;;41.25;22.58;;;;;;;2.71;100.00;101061.31;6281061;28;20055;-73
2021/12/17 09:29:58;;;;;;;38.00;22.48;;;;;;;2.78;100.00;101065.56;6278860;28;20045;-73
2021/12/17 09:32:59;;;;;;;36.78;20.27;;;;;;;3.23;100.00;101064.94;6273057;28;20124;-73
2021/12/17 09:36:00;;;;;;;35.60;20.35;;;;;;;3.21;100.00;101054.66;6272932;28;20060;-72
2021/12/17 09:39:01;;;;;;;38.15;21.50;;;;;;;3.80;100.00;101051.97;6255060;28;20059;-73
2021/12/17 09:42:02;;;;;;;34.55;19.33;;;;;;;3.47;100.00;101052.56;6271580;28;20495;-73
2021/12/17 09:45:04;;;;;;;37.38;21.48;;;;;;;3.62;100.00;101054.88;6272680;28;20075;-73
2021/12/17 09:48:05;;;;;;;40.97;20.75;;;;;;;4.06;100.00;101045.53;6272764;28;20385;-73
2021/12/17 09:51:07;;;;;;;32.63;19.67;;;;;;;3.77;100.00;101035.72;6271322;28;20041;-73
2021/12/17 09:54:08;;;;;;;;;;;;;;;3.70;100.00;101044.44;6273053;28;20045;-73
2021/12/17 09:57:09;;;;;;;30.00;16.77;;;;;;;3.70;100.00;101037.53;6272365;28;19921;-73
2021/12/17 10:00:19;;;;;;;32.72;18.85;;;;;;;4.01;100.00;101042.16;6272394;28;20095;-73
2021/12/17 10:03:20;;;;;;;31.15;17.95;;;;;;;4.35;100.00;101034.63;6271132;28;20079;-74
2021/12/17 10:06:22;;;;;;;30.73;17.02;;;;;;;4.36;100.00;101043.22;6254558;28;20091;-73
2021/12/17 10:09:32;;;;;;;33.00;18.02;;;;;;;4.26;100.00;101045.13;6272139;28;20041;-72
2021/12/17 10:12:36;;;;;;;31.95;17.70;;;;;;;4.39;100.00;101041.44;6274373;28;20391;-73
2021/12/17 10:15:39;;;;;;;30.33;17.48;;;;;;;4.18;100.00;101047.88;6280391;28;20051;-73
2021/12/17 10:18:44;;;;;;;30.33;17.58;;;;;;;4.13;100.00;101038.50;6277884;28;20094;-73
2021/12/17 10:21:46;;;;;;;30.98;18.33;;;;;;;4.28;100.00;101038.19;6270684;28;20377;-73
2021/12/17 10:25:06;;;;;;;32.58;18.20;;;;;;;4.06;100.00;101035.19;6269898;28;20142;-73
2021/12/17 10:28:08;;;;;;;33.75;19.08;;;;;;;4.29;100.00;101028.75;6271701;28;20055;-73
2021/12/17 10:31:10;;;;;;;31.13;17.60;;;;;;;4.33;100.00;101027.81;6271491;28;20480;-73
2021/12/17 10:34:17;;;;;;;32.13;17.77;;;;;;;4.27;100.00;101030.50;6271650;28;20041;-73
2021/12/17 10:37:32;;;;;;;31.17;18.08;;;;;;;4.35;100.00;101024.28;6271104;28;20624;-73
2021/12/17 10:40:42;;;;;;;38.33;19.40;;;;;;;4.31;100.00;101025.25;6271375;28;20044;-73
2021/12/17 10:43:50;;;;;;;36.55;19.30;;;;;;;4.33;100.00;101022.63;6271446;28;20048;-73
2021/12/17 10:47:06;;;;;;;34.97;20.25;;;;;;;4.44;100.00;101028.44;6270218;28;20379;-73
2021/12/17 10:50:07;;;;;;;32.78;18.10;;;;;;;4.21;100.00;101031.47;6271230;28;20045;-73
2021/12/17 10:53:09;;;;;;;;;;;;;;;4.37;100.00;101027.69;6254239;28;20445;-73
2021/12/17 10:56:16;;;;;;;41.58;20.48;;;;;;;4.48;100.00;101026.63;6271511;28;19920;-73
2021/12/17 10:59:31;;;;;;;36.00;20.38;;;;;;;4.66;100.00;101020.25;6271026;28;20037;-73
2021/12/17 11:02:33;;;;;;;35.20;21.05;;;;;;;4.61;100.00;101021.19;6270548;28;20045;-73
2021/12/17 11:05:34;;;;;;;40.17;20.58;;;;;;;4.66;100.00;101021.09;6272473;28;20045;-73
2021/12/17 11:08:37;;;;;;;34.13;18.75;;;;;;;4.74;100.00;101015.75;6272429;28;20049;-74
2021/12/17 11:11:42;;;;;;;33.65;18.80;;;;;;;4.42;98.85;101000.03;6312234;28;20048;-73
2021/12/17 11:14:45;;;;;;;38.08;20.25;;;;;;;4.66;99.72;100995.25;6272851;28;20044;-73
2021/12/17 11:17:49;;;;;;;39.45;20.20;;;;;;;4.90;100.00;101004.19;6282799;28;20037;-73
2021/12/17 11:20:52;;;;;;;34.03;19.67;;;;;;;4.78;100.00;100987.22;6270853;28;20041;-72
2021/12/17 11:23:53;;;;;;;35.08;19.67;;;;;;;5.02;99.20;101000.47;6257314;28;20492;-73
2021/12/17 11:26:55;;;;;;;45.15;22.58;;;;;;;4.98;98.50;100991.94;6288241;28;20041;-73
2021/12/17 11:29:56;;;;;;;42.85;22.80;;;;;;;5.17;97.62;101000.13;6294577;28;20052;-73
2021/12/17 11:33:01;;;;;;;33.88;20.27;;;;;;;5.18;98.27;100996.63;6288374;28;20041;-73
2021/12/17 11:36:02;;;;;;;33.53;19.38;;;;;;;5.15;97.89;100988.13;6269629;28;20053;-73
2021/12/17 11:39:30;;;;;;;36.33;19.55;;;;;;;5.03;96.33;100982.31;6270742;28;20487;-73
2021/12/17 11:43:10;;;;;;;39.38;20.67;;;;;;;5.02;97.52;100985.81;6275262;28;20041;-73
2021/12/17 11:46:15;;;;;;;36.75;19.42;;;;;;;5.05;96.28;100977.13;6280622;28;20044;-72
2021/12/17 11:49:15;;;;;;;34.75;21.13;;;;;;;5.27;96.60;100976.59;6294510;28;20040;-74
2021/12/17 11:52:44;;;;;;;32.95;19.67;;;;;;;5.32;96.40;100978.19;6285629;28;20044;-73
2021/12/17 11:55:47;;;;;;;37.60;20.73;;;;;;;5.35;97.19;100982.44;6294456;28;20059;-73
2021/12/17 11:58:52;;;;;;;35.53;20.73;;;;;;;5.39;95.20;100969.38;6283339;28;20044;-73
2021/12/17 12:02:11;;;;;;;39.38;19.70;;;;;;;5.30;97.48;100969.63;6295451;28;20037;-73
2021/12/17 12:05:34;;;;;;;35.13;19.48;;;;;;;5.40;95.65;100957.31;6295301;28;20037;-73
2021/12/17 12:08:46;;;;;;;32.95;18.67;;;;;;;5.63;95.37;100960.16;6295319;28;20132;-73
2021/12/17 12:12:08;;;;;;;33.58;18.70;;;;;;;5.77;93.73;100961.53;6295326;28;20400;-73
2021/12/17 12:15:36;;;;;;;32.30;18.27;;;;;;;5.76;91.34;100965.00;6314751;28;20110;-73
2021/12/17 12:18:50;;;;;;;32.55;17.77;;;;;;;5.80;94.35;100976.97;6313265;28;20139;-72
2021/12/17 12:22:05;;;;;;;32.60;17.52;;;;;;;5.77;92.37;100969.31;6299465;28;20059;-73
2021/12/17 12:25:28;;;;;;;33.58;18.35;;;;;;;5.80;94.23;100980.41;6298292;28;20048;-73
2021/12/17 12:28:44;;;;;;;31.08;16.35;;;;;;;5.73;91.29;100971.13;6298216;28;20048;-74
2021/12/17 12:31:54;;;;;;;26.23;16.38;;;;;;;5.74;93.62;100971.97;6297953;28;20399;-73
2021/12/17 12:35:07;;;;;;;27.42;16.20;;;;;;;5.76;94.11;100976.22;6298068;28;20049;-73
2021/12/17 12:38:22;;;;;;;27.42;16.27;;;;;;;5.47;95.21;100976.97;6297762;28;20059;-73
2021/12/17 12:41:27;;;;;;;24.25;14.30;;;;;;;5.75;92.44;100977.09;6298049;28;20052;-73
2021/12/17 12:44:57;;;;;;;30.33;15.35;;;;;;;5.52;93.83;100975.13;6291684;28;20407;-73
2021/12/17 12:48:00;;;;;;;32.35;18.67;;;;;;;5.66;92.57;100972.16;6289166;28;20579;-73
2021/12/17 12:51:34;;;;;;;32.08;18.60;;;;;;;5.43;95.15;100976.19;6292560;28;20041;-73
2021/12/17 12:54:34;;;;;;;27.20;16.10;;;;;;;5.72;96.99;100971.16;6317492;28;20056;-73
2021/12/17 12:57:39;;;;;;;32.72;17.00;;;;;;;5.62;95.75;100971.41;6280788;28;20053;-74
2021/12/17 13:00:51;;;;;;;30.42;15.70;;;;;;;5.65;95.35;100975.66;6283210;28;20086;-73
2021/12/17 13:03:51;;;;;;;32.93;17.07;;;;;;;5.69;96.93;100971.25;6273843;28;20052;-73
2021/12/17 13:06:52;;;;;;;28.77;17.67;;;;;;;5.64;97.10;100980.00;6272495;28;20286;-74
2021/12/17 13:09:53;;;;;;;35.47;18.98;;;;;;;5.67;99.92;100973.03;6239486;28;20041;-73
2021/12/17 13:13:08;;;;;;;34.60;19.10;;;;;;;5.56;98.81;100971.56;6255840;28;20067;-73
2021/12/17 13:16:23;;;;;;;28.52;18.60;;;;;;;5.60;99.92;100974.91;6273539;28;20041;-73
2021/12/17 13:22:56;;;;;;;30.33;18.52;;;;;;;5.56;100.00;100962.94;6275486;28;20041;-73
2021/12/17 13:26:01;;;;;;;34.55;19.70;;;;;;;5.63;99.43;100957.56;6273973;28;20072;-73
2021/12/17 13:29:23;;;;;;;32.38;19.10;;;;;;;5.66;100.00;100966.97;6273220;28;20099;-73
2021/12/17 13:32:25;;;;;;;34.95;21.17;;;;;;;5.54;99.57;100972.47;6271879;28;20481;-73
2021/12/17 13:35:27;;;;;;;35.28;20.45;;;;;;;5.63;98.79;100961.91;6273081;28;20441;-72
2021/12/17 13:38:32;;;;;;;38.22;20.77;;;;;;;5.72;99.00;100963.38;6272925;28;20055;-73
2021/12/17 13:41:44;;;;;;;32.28;20.55;;;;;;;5.79;98.42;100965.78;6271626;28;20507;-73
2021/12/17 13:45:04;;;;;;;36.20;19.85;;;;;;;5.71;98.64;100966.88;6284885;28;20475;-73
2021/12/17 13:48:05;;;;;;;32.53;20.45;;;;;;;5.68;99.29;100969.53;6296267;28;20044;-73
2021/12/17 13:51:13;;;;;;;34.67;19.83;;;;;;;5.73;98.76;100980.63;6276812;28;20052;-73
2021/12/17 13:54:14;;;;;;;38.03;21.90;;;;;;;5.72;99.00;100976.34;6271503;28;20041;-73
2021/12/17 13:57:17;;;;;;;33.17;19.67;;;;;;;5.64;97.96;100982.56;6271694;28;20442;-73
2021/12/17 14:00:22;;;;;;;33.65;19.95;;;;;;;5.63;100.00;100980.84;6276009;28;20044;-73
2021/12/17 14:03:28;;;;;;;33.03;19.00;;;;;;;5.51;100.00;100978.59;6254735;28;20162;-73
2021/12/17 14:06:36;;;;;;;27.85;16.77;;;;;;;5.31;100.00;100966.13;6272186;28;20052;-73
2021/12/17 14:09:37;;;;;;;28.42;14.80;;;;;;;5.38;96.40;100974.63;6270869;28;20040;-73
2021/12/17 14:12:42;;;;;;;25.55;14.57;;;;;;;5.46;97.07;100975.28;6237868;28;20037;-73
2021/12/17 14:15:43;;;;;;;18.33;9.57;;;;;;;5.31;85.76;100966.13;6271865;28;20044;-73
2021/12/17 14:18:44;;;;;;;20.38;10.45;;;;;;;5.39;84.98;100971.13;6254105;28;20041;-73
2021/12/17 14:21:45;;;;;;;23.35;10.13;;;;;;;5.58;85.05;100967.19;6237613;28;20044;-73
2021/12/17 14:24:46;;;;;;;22.60;9.75;;;;;;;5.46;84.78;100972.69;6276926;28;20411;-73
2021/12/17 14:27:47;;;;;;;19.08;9.98;;;;;;;5.48;85.71;100968.31;6257242;28;20040;-73
2021/12/17 14:31:03;;;;;;;14.40;7.85;;;;;;;5.51;84.17;100964.81;6270514;28;20045;-73
2021/12/17 14:34:04;;;;;;;15.35;7.97;;;;;;;5.44;84.16;100964.13;6271878;28;20037;-73
2021/12/17 14:37:04;;;;;;;16.33;7.35;;;;;;;5.51;84.58;100962.22;6269454;28;20053;-72
2021/12/17 14:40:23;;;;;;;14.18;7.57;;;;;;;5.57;83.71;100967.22;6271610;28;20045;-74
2021/12/17 14:43:36;;;;;;;16.05;7.28;;;;;;;5.47;85.43;100956.25;6254040;28;20107;-72
2021/12/17 14:47:01;;;;;;;17.08;8.55;;;;;;;5.47;87.14;100963.19;6281024;28;20068;-72
2021/12/17 15:03:53;;;;;;;41.70;17.13;;;;;;;5.23;87.61;100958.56;6271092;28;20049;-72
2021/12/17 15:06:56;;;;;;;46.97;18.15;;;;;;;5.24;88.22;100962.00;6286448;28;20099;-73
2021/12/17 15:09:56;;;;;;;49.28;21.35;;;;;;;5.15;88.74;100957.06;6287768;28;20072;-73
2021/12/17 15:13:00;;;;;;;52.75;28.60;;;;;;;5.18;87.71;100956.97;6278079;28;20040;-73
2021/12/17 15:16:02;;;;;;;68.18;34.97;;;;;;;5.15;87.05;100957.06;6269992;28;20037;-73
2021/12/17 15:19:03;;;;;;;47.83;26.85;;;;;;;5.06;86.75;100958.13;6285048;28;20376;-73
2021/12/17 15:22:04;;;;;;;23.58;11.93;;;;;;;5.03;83.49;100953.03;6278087;28;20037;-72
2021/12/17 15:25:06;;;;;;;18.27;8.63;;;;;;;5.11;81.69;100964.06;6294589;28;20040;-73
2021/12/17 15:28:08;;;;;;;;;;;;;;;5.21;82.38;100956.94;6295099;28;20182;-73
2021/12/17 15:31:09;;;;;;;15.02;7.72;;;;;;;5.16;82.27;100953.59;6294512;28;19928;-73
2021/12/17 15:34:10;;;;;;;18.10;7.25;;;;;;;5.22;81.88;100961.19;6272894;28;20037;-73
2021/12/17 15:37:11;;;;;;;15.85;7.60;;;;;;;5.23;82.62;100955.16;6270539;28;20053;-72
2021/12/17 15:40:12;;;;;;;15.45;7.43;;;;;;;5.20;82.79;100953.47;6270796;28;20077;-72
2021/12/17 15:43:16;;;;;;;11.65;7.07;;;;;;;5.19;82.72;100953.53;6270540;28;20037;-72
2021/12/17 15:46:17;;;;;;;15.65;7.65;;;;;;;4.97;80.39;100966.09;6253235;28;20091;-73
2021/12/17 15:49:17;;;;;;;14.48;7.30;;;;;;;5.11;82.18;100964.06;6273822;28;20401;-73
2021/12/17 15:52:18;;;;;;;15.70;7.88;;;;;;;5.03;80.95;100971.13;6275367;28;20116;-72
2021/12/17 15:55:23;;;;;;;13.07;6.40;;;;;;;5.08;80.62;100969.28;6274184;28;20037;-73
2021/12/17 15:58:24;;;;;;;14.77;6.93;;;;;;;5.07;80.40;100970.19;6274029;28;20484;-73
2021/12/17 16:01:25;;;;;;;13.90;8.10;;;;;;;5.03;80.15;100971.97;6274079;28;20051;-72
2021/12/17 16:04:28;;;;;;;15.18;8.98;;;;;;;5.12;81.74;100970.06;6275115;28;20043;-73
2021/12/17 16:07:29;;;;;;;16.85;9.75;;;;;;;5.08;81.28;100968.44;6273972;28;20047;-73
2021/12/17 16:23:53;;;;;;;15.30;6.82;;;;;;;5.03;80.45;100974.56;6274719;28;20597;-73
2021/12/17 16:26:54;;;;;;;12.18;7.07;;;;;;;4.99;81.50;100982.44;6274669;28;20091;-73
2021/12/17 16:29:57;;;;;;;13.07;6.57;;;;;;;4.94;81.09;100982.56;6273443;28;20461;-74
2021/12/17 16:32:58;;;;;;;15.02;7.28;;;;;;;4.92;81.06;100978.28;6274457;28;20041;-73
2021/12/17 16:36:00;;;;;;;17.77;7.80;;;;;;;4.90;81.06;100974.88;6274230;28;20452;-74
2021/12/17 16:39:03;;;;;;;16.15;7.90;;;;;;;4.77;81.31;100976.91;6274420;28;20132;-73
2021/12/17 16:42:04;;;;;;;14.13;8.23;;;;;;;4.88;80.98;100974.06;6274249;28;20040;-73
2021/12/17 16:48:22;;;;;;;15.55;8.00;;;;;;;4.77;82.22;100975.16;6273967;28;20041;-75
2021/12/17 16:51:23;;;;;;;13.20;7.32;;;;;;;4.81;82.27;100971.63;6274603;28;20041;-74
2021/12/17 16:54:24;;;;;;;13.65;6.75;;;;;;;4.71;82.82;100982.19;6297579;28;20135;-74
2021/12/17 16:57:26;;;;;;;17.20;8.25;;;;;;;4.66;83.11;100979.72;6294357;28;20059;-74
2021/12/17 17:00:27;;;;;;;19.73;8.77;;;;;;;4.57;82.76;100970.44;6297930;28;20473;-73
2021/12/17 17:03:28;;;;;;;16.35;7.68;;;;;;;4.69;81.95;100973.63;6297687;28;20059;-73
2021/12/17 17:06:29;;;;;;;14.68;7.60;;;;;;;4.59;82.28;100960.03;6280824;28;20063;-73
2021/12/17 17:09:32;;;;;;;19.77;7.95;;;;;;;4.61;81.04;100960.88;6297358;28;20041;-73
2021/12/17 17:12:34;;;;;;;10.75;6.05;;;;;;;4.61;80.08;100963.44;6297345;28;20048;-73
2021/12/17 17:15:35;;;;;;;;;;;;;;;4.60;77.98;100965.19;6297555;28;20531;-74
2021/12/17 17:18:38;;;;;;;12.25;6.00;;;;;;;4.59;77.45;100963.50;6297081;28;19921;-73
2021/12/17 17:21:39;;;;;;;16.00;7.32;;;;;;;4.70;78.41;100962.41;6297140;28;20047;-74